createdAt,value
2022-10-11T00:02:16.390Z,15.48
2022-10-11T00:04:43.194Z,19.42
2022-10-11T00:07:10.086Z,16.48
2022-10-11T00:09:36.853Z,15.55
2022-10-11T00:12:03.899Z,14.95
2022-10-11T00:14:30.581Z,21.67
2022-10-11T00:16:57.282Z,18.20
2022-10-11T00:19:24.048Z,19.25
2022-10-11T00:21:50.968Z,18.73
2022-10-11T00:24:17.765Z,22.58
2022-10-11T00:26:47.006Z,17.42
2022-10-11T00:29:14.367Z,13.35
2022-10-11T00:31:41.131Z,19.92
2022-10-11T00:34:08.509Z,19.85
2022-10-11T00:36:35.235Z,18.65
2022-10-11T00:39:02.149Z,18.95
2022-10-11T00:41:28.824Z,16.08
2022-10-11T00:44:13.788Z,18.80
2022-10-11T00:46:43.282Z,18.65
2022-10-11T00:49:38.190Z,19.38
2022-10-11T00:52:29.073Z,15.88
2022-10-11T00:54:56.897Z,14.00
2022-10-11T00:57:26.128Z,18.35
2022-10-11T00:59:55.174Z,15.95
2022-10-11T01:02:23.746Z,17.35
2022-10-11T01:05:05.723Z,17.80
2022-10-11T01:07:39.126Z,18.70
2022-10-11T01:10:05.994Z,17.55
2022-10-11T01:12:32.975Z,15.77
2022-10-11T01:15:32.107Z,16.38
2022-10-11T01:18:13.319Z,18.95
2022-10-11T01:20:57.930Z,13.65
2022-10-11T01:23:58.349Z,18.38
2022-10-11T01:26:58.073Z,13.50
2022-10-11T01:29:57.308Z,14.93
2022-10-11T01:32:34.176Z,13.23
2022-10-11T01:35:13.644Z,18.55
2022-10-11T01:37:46.649Z,15.82
2022-10-11T01:40:21.842Z,21.65
2022-10-11T01:42:49.795Z,20.20
2022-10-11T01:45:18.628Z,14.10
2022-10-11T01:47:45.928Z,15.60
2022-10-11T01:50:34.418Z,18.60
2022-10-11T01:53:16.770Z,13.65
2022-10-11T01:56:10.872Z,13.85
2022-10-11T01:58:51.499Z,13.60
2022-10-11T02:01:39.541Z,12.68
2022-10-11T02:04:30.924Z,12.15
2022-10-11T02:07:02.507Z,19.13
2022-10-11T02:09:42.623Z,17.02
2022-10-11T02:12:17.250Z,16.30
2022-10-11T02:14:47.361Z,18.58
2022-10-11T02:17:21.378Z,17.23
2022-10-11T02:19:52.198Z,15.65
2022-10-11T02:22:38.852Z,19.98
2022-10-11T02:25:10.603Z,13.77
2022-10-11T02:27:40.584Z,21.58
2022-10-11T02:30:09.740Z,17.30
2022-10-11T02:32:39.553Z,15.35
2022-10-11T02:35:07.036Z,18.13
2022-10-11T02:37:40.845Z,18.67
2022-10-11T02:40:10.873Z,12.70
2022-10-11T02:42:42.997Z,20.10
2022-10-11T02:45:18.444Z,16.50
2022-10-11T02:47:46.222Z,13.65
2022-10-11T02:50:14.286Z,16.55
2022-10-11T02:52:41.036Z,20.95
2022-10-11T02:55:08.725Z,14.80
2022-10-11T02:57:35.762Z,15.73
2022-10-11T03:00:03.966Z,18.27
2022-10-11T03:02:30.669Z,13.35
2022-10-11T03:04:57.590Z,18.35
2022-10-11T03:07:24.472Z,14.43
2022-10-11T03:09:51.310Z,19.23
2022-10-11T03:12:18.018Z,19.80
2022-10-11T03:14:44.732Z,13.30
2022-10-11T03:17:34.359Z,18.55
2022-10-11T03:19:58.160Z,12.60
2022-10-11T03:22:24.805Z,19.95
2022-10-11T03:24:51.485Z,19.95
2022-10-11T03:27:18.207Z,17.58
2022-10-11T03:29:44.865Z,16.17
2022-10-11T03:32:11.546Z,15.65
2022-10-11T03:34:38.280Z,18.27
2022-10-11T03:37:04.956Z,16.50
2022-10-11T03:39:31.642Z,18.10
2022-10-11T03:41:58.377Z,20.38
2022-10-11T03:44:25.100Z,20.08
2022-10-11T03:46:51.751Z,14.60
2022-10-11T03:49:18.470Z,21.23
2022-10-11T03:51:45.214Z,15.15
2022-10-11T03:54:11.902Z,25.65
2022-10-11T03:56:38.593Z,22.98
2022-10-11T03:59:05.372Z,17.58
2022-10-11T04:01:37.492Z,14.90
2022-10-11T04:04:04.973Z,22.02
2022-10-11T04:06:32.676Z,22.02
2022-10-11T04:08:59.585Z,26.75
2022-10-11T04:11:27.019Z,18.35
2022-10-11T04:13:53.811Z,18.00
2022-10-11T04:16:20.613Z,16.00
2022-10-11T04:18:47.345Z,20.67
2022-10-11T04:21:14.128Z,20.30
2022-10-11T04:23:40.786Z,20.95
2022-10-11T04:26:08.828Z,22.70
2022-10-11T04:28:35.994Z,19.17
2022-10-11T04:31:05.031Z,22.77
2022-10-11T04:33:31.770Z,22.38
2022-10-11T04:35:58.438Z,17.42
2022-10-11T04:38:25.129Z,25.67
2022-10-11T04:40:51.839Z,22.15
2022-10-11T04:43:19.030Z,17.58
2022-10-11T04:45:46.233Z,18.55
2022-10-11T04:48:14.085Z,20.80
2022-10-11T04:50:40.796Z,19.58
2022-10-11T04:53:07.538Z,14.85
2022-10-11T04:55:34.244Z,15.23
2022-10-11T04:58:02.112Z,15.85
2022-10-11T05:00:28.956Z,23.45
2022-10-11T05:02:55.710Z,16.58
2022-10-11T05:05:22.384Z,18.67
2022-10-11T05:07:49.068Z,15.88
2022-10-11T05:10:15.849Z,12.65
2022-10-11T05:12:42.508Z,17.83
2022-10-11T05:15:09.661Z,14.15
2022-10-11T05:17:36.489Z,17.73
2022-10-11T05:20:03.937Z,13.20
2022-10-11T05:22:30.610Z,18.17
2022-10-11T05:24:57.342Z,20.42
2022-10-11T05:27:24.004Z,18.27
2022-10-11T05:29:50.655Z,16.48
2022-10-11T05:32:17.353Z,20.20
2022-10-11T05:34:44.035Z,18.02
2022-10-11T05:37:10.801Z,16.40
2022-10-11T05:39:37.547Z,17.65
2022-10-11T05:42:08.933Z,17.83
2022-10-11T05:44:36.519Z,23.30
2022-10-11T05:47:03.301Z,13.82
2022-10-11T05:49:30.032Z,20.45
2022-10-11T05:51:56.945Z,15.10
2022-10-11T05:54:23.728Z,20.92
2022-10-11T05:56:50.397Z,14.65
2022-10-11T05:59:17.081Z,19.73
2022-10-11T06:01:43.839Z,14.90
2022-10-11T06:04:11.752Z,20.92
2022-10-11T06:06:38.441Z,18.40
2022-10-11T06:09:05.155Z,18.15
2022-10-11T06:11:31.940Z,15.07
2022-10-11T06:13:58.733Z,16.38
2022-10-11T06:16:26.167Z,14.38
2022-10-11T06:18:54.630Z,17.95
2022-10-11T06:21:22.032Z,15.95
2022-10-11T06:23:50.886Z,12.80
2022-10-11T06:26:18.090Z,20.75
2022-10-11T06:28:44.921Z,15.20
2022-10-11T06:31:12.652Z,18.48
2022-10-11T06:33:39.588Z,15.18
2022-10-11T06:36:10.605Z,12.13
2022-10-11T06:38:42.336Z,13.95
2022-10-11T06:41:20.253Z,14.48
2022-10-11T06:43:49.335Z,13.13
2022-10-11T06:46:16.669Z,17.25
2022-10-11T06:48:45.044Z,13.30
2022-10-11T06:51:13.197Z,12.18
2022-10-11T06:53:40.399Z,17.55
2022-10-11T06:56:10.384Z,10.93
2022-10-11T06:58:37.957Z,14.38
2022-10-11T07:01:10.449Z,18.00
2022-10-11T07:03:37.606Z,16.00
2022-10-11T07:06:10.509Z,17.92
2022-10-11T07:08:38.434Z,17.27
2022-10-11T07:11:13.747Z,16.75
2022-10-11T07:13:41.416Z,15.75
2022-10-11T07:16:10.770Z,15.27
2022-10-11T07:18:37.889Z,13.00
2022-10-11T07:21:06.449Z,17.75
2022-10-11T07:23:33.534Z,13.95
2022-10-11T07:26:00.301Z,14.90
2022-10-11T07:28:28.798Z,14.30
2022-10-11T07:30:56.057Z,11.77
2022-10-11T07:33:22.794Z,14.18
2022-10-11T07:35:50.064Z,12.23
2022-10-11T07:38:17.341Z,10.93
2022-10-11T07:40:45.960Z,10.82
2022-10-11T07:43:13.509Z,17.40
2022-10-11T07:45:41.537Z,12.80
2022-10-11T07:48:09.297Z,17.50
2022-10-11T07:50:36.024Z,16.60
2022-10-11T07:53:03.600Z,11.00
2022-10-11T07:55:33.956Z,10.13
2022-10-11T07:58:00.716Z,12.60
2022-10-11T08:00:27.519Z,8.80
2022-10-11T08:02:54.202Z,13.73
2022-10-11T08:05:21.057Z,8.95
2022-10-11T08:07:48.732Z,13.30
2022-10-11T08:10:15.648Z,8.52
2022-10-11T08:12:42.351Z,16.83
2022-10-11T08:15:09.415Z,9.10
2022-10-11T08:17:36.193Z,12.65
2022-10-11T08:20:03.059Z,9.45
2022-10-11T08:22:30.434Z,10.20
2022-10-11T08:24:57.227Z,16.65
2022-10-11T08:27:23.993Z,15.65
2022-10-11T08:29:51.262Z,11.38
2022-10-11T08:32:17.921Z,9.10
2022-10-11T08:34:44.645Z,10.23
2022-10-11T08:37:11.384Z,12.77
2022-10-11T08:39:38.031Z,10.57
2022-10-11T08:42:44.920Z,9.05
2022-10-11T08:45:29.943Z,8.43
2022-10-11T08:48:16.228Z,10.55
2022-10-11T08:50:46.620Z,7.03
2022-10-11T08:53:39.145Z,7.88
2022-10-11T08:56:07.793Z,11.35
2022-10-11T08:58:44.412Z,12.25
2022-10-11T09:01:18.159Z,7.97
2022-10-11T09:03:47.499Z,9.32
2022-10-11T09:06:37.136Z,11.85
2022-10-11T09:09:22.964Z,7.63
2022-10-11T09:12:03.827Z,15.45
2022-10-11T09:14:49.524Z,12.73
2022-10-11T09:17:57.549Z,11.30
2022-10-11T09:20:31.541Z,9.02
2022-10-11T09:23:19.459Z,16.20
2022-10-11T09:26:00.655Z,9.43
2022-10-11T09:28:58.679Z,10.63
2022-10-11T09:31:28.798Z,13.90
2022-10-11T09:33:56.687Z,7.07
2022-10-11T09:36:49.386Z,10.43
2022-10-11T09:39:27.999Z,13.05
2022-10-11T09:42:03.591Z,15.23
2022-10-11T09:44:35.201Z,12.50
2022-10-11T09:47:01.887Z,8.70
2022-10-11T09:49:35.695Z,11.93
2022-10-11T09:52:03.860Z,9.32
2022-10-11T09:54:54.370Z,15.10
2022-10-11T09:57:24.651Z,15.90
2022-10-11T10:00:01.818Z,23.70
2022-10-11T10:02:30.318Z,15.73
2022-10-11T10:05:00.291Z,22.83
2022-10-11T10:07:29.315Z,14.75
2022-10-11T10:09:56.779Z,26.65
2022-10-11T10:12:29.731Z,20.92
2022-10-11T10:15:02.336Z,27.67
2022-10-11T10:17:29.182Z,15.73
2022-10-11T10:20:00.217Z,19.13
2022-10-11T10:22:30.638Z,13.30
2022-10-11T10:25:00.276Z,14.23
2022-10-11T10:27:29.318Z,39.60
2022-10-11T10:30:19.368Z,27.20
2022-10-11T10:32:55.943Z,31.42
2022-10-11T10:35:22.589Z,14.52
2022-10-11T10:38:26.600Z,22.58
2022-10-11T10:40:59.030Z,24.02
2022-10-11T10:43:29.723Z,34.47
2022-10-11T10:46:20.601Z,19.02
2022-10-11T10:52:13.105Z,19.95
2022-10-11T10:54:44.491Z,13.85
2022-10-11T10:57:20.883Z,13.32
2022-10-11T11:00:04.595Z,13.40
2022-10-11T11:02:41.519Z,17.05
2022-10-11T11:05:58.063Z,11.57
2022-10-11T11:08:49.084Z,13.13
2022-10-11T11:11:41.466Z,13.15
2022-10-11T11:14:14.265Z,19.13
2022-10-11T11:17:15.617Z,17.38
2022-10-11T11:22:54.420Z,12.23
2022-10-11T11:25:41.357Z,10.32
2022-10-11T11:28:28.028Z,13.73
2022-10-11T11:31:08.800Z,16.08
2022-10-11T11:34:13.417Z,11.73
2022-10-11T11:36:51.953Z,13.60
2022-10-11T11:39:39.727Z,13.98
2022-10-11T11:42:18.132Z,6.63
2022-10-11T11:44:48.565Z,8.98
2022-10-11T11:47:36.795Z,13.32
2022-10-11T11:50:06.107Z,9.43
2022-10-11T11:52:39.315Z,12.10
2022-10-11T11:55:18.627Z,6.65
2022-10-11T11:57:53.519Z,12.73
2022-10-11T12:00:23.230Z,10.88
2022-10-11T12:03:04.256Z,9.55
2022-10-11T12:05:34.739Z,8.20
2022-10-11T12:08:03.539Z,6.28
2022-10-11T12:10:53.274Z,7.65
2022-10-11T12:13:31.999Z,7.57
2022-10-11T12:15:59.235Z,14.52
2022-10-11T12:18:26.632Z,12.57
2022-10-11T12:21:31.900Z,7.20
2022-10-11T12:24:12.086Z,7.00
2022-10-11T12:26:45.086Z,8.50
2022-10-11T12:29:24.545Z,8.88
2022-10-11T12:32:00.854Z,11.45
2022-10-11T12:34:35.298Z,13.57
2022-10-11T12:37:20.187Z,8.75
2022-10-11T12:39:51.605Z,10.45
2022-10-11T12:42:33.706Z,22.10
2022-10-11T12:45:12.737Z,8.18
2022-10-11T12:47:59.966Z,18.23
2022-10-11T12:50:48.548Z,10.80
2022-10-11T12:53:24.497Z,14.88
2022-10-11T12:56:00.312Z,10.82
2022-10-11T12:58:41.451Z,9.07
2022-10-11T13:01:12.912Z,11.45
2022-10-11T13:03:46.593Z,7.50
2022-10-11T13:06:48.697Z,9.48
2022-10-11T13:09:33.303Z,8.80
2022-10-11T13:12:33.881Z,7.78
2022-10-11T13:15:07.024Z,10.13
2022-10-11T13:17:38.617Z,9.60
2022-10-11T13:20:18.219Z,10.93
2022-10-11T13:22:48.089Z,9.85
2022-10-11T13:25:23.654Z,10.13
2022-10-11T13:27:53.103Z,12.60
2022-10-11T13:30:26.257Z,7.35
2022-10-11T13:32:54.639Z,9.95
2022-10-11T13:35:36.318Z,8.52
2022-10-11T13:38:04.754Z,7.35
2022-10-11T13:40:32.190Z,11.23
2022-10-11T13:43:00.005Z,8.25
2022-10-11T13:45:32.204Z,8.40
2022-10-11T13:47:59.005Z,5.78
2022-10-11T13:50:34.388Z,4.90
2022-10-11T13:53:23.711Z,5.63
2022-10-11T13:56:12.499Z,9.02
2022-10-11T13:58:47.123Z,11.60
2022-10-11T14:01:20.982Z,10.18
2022-10-11T14:03:55.212Z,12.23
2022-10-11T14:06:22.314Z,8.18
2022-10-11T14:08:55.493Z,7.03
2022-10-11T14:11:37.583Z,8.63
2022-10-11T14:14:28.875Z,10.00
2022-10-11T14:17:17.498Z,9.27
2022-10-11T14:19:46.322Z,10.38
2022-10-11T14:22:17.632Z,8.45
2022-10-11T14:24:47.678Z,12.38
2022-10-11T14:27:23.967Z,32.20
2022-10-11T14:30:12.979Z,11.93
2022-10-11T14:32:42.244Z,11.73
2022-10-11T14:35:21.503Z,13.13
2022-10-11T14:37:48.305Z,9.20
2022-10-11T14:40:27.220Z,7.03
2022-10-11T14:42:54.119Z,10.27
2022-10-11T14:45:21.345Z,6.30
2022-10-11T14:47:49.060Z,4.68
2022-10-11T14:50:33.170Z,6.93
2022-10-11T14:53:00.507Z,6.88
2022-10-11T14:55:27.377Z,5.68
2022-10-11T14:57:54.309Z,5.95
2022-10-11T15:00:26.679Z,6.55
2022-10-11T15:02:54.371Z,7.20
2022-10-11T15:05:22.928Z,6.30
2022-10-11T15:07:50.109Z,6.95
2022-10-11T15:10:26.715Z,5.50
2022-10-11T15:12:55.101Z,9.38
2022-10-11T15:15:24.796Z,10.05
2022-10-11T15:17:57.113Z,7.05
2022-10-11T15:20:27.231Z,7.88
2022-10-11T15:22:55.275Z,7.68
2022-10-11T15:25:23.541Z,6.43
2022-10-11T15:27:51.508Z,5.40
2022-10-11T15:30:19.902Z,10.55
2022-10-11T15:32:47.556Z,10.45
2022-10-11T15:35:14.841Z,8.68
2022-10-11T15:37:42.187Z,7.68
2022-10-11T15:40:32.225Z,8.38
2022-10-11T15:42:59.621Z,10.20
2022-10-11T15:45:26.995Z,13.93
2022-10-11T15:47:53.724Z,9.45
2022-10-11T15:50:33.698Z,14.88
2022-10-11T15:53:01.573Z,9.48
2022-10-11T15:55:28.810Z,11.05
2022-10-11T15:57:55.631Z,13.30
2022-10-11T16:00:22.560Z,11.45
2022-10-11T16:02:54.349Z,11.77
2022-10-11T16:05:24.604Z,11.57
2022-10-11T16:07:52.520Z,11.15
2022-10-11T16:10:20.092Z,13.82
2022-10-11T16:12:46.934Z,16.83
2022-10-11T16:15:14.035Z,10.88
2022-10-11T16:17:40.738Z,18.85
2022-10-11T16:20:08.435Z,10.57
2022-10-11T16:22:35.782Z,11.05
2022-10-11T16:25:03.853Z,9.43
2022-10-11T16:27:30.755Z,11.77
2022-10-11T16:29:57.813Z,14.20
2022-10-11T16:32:25.351Z,6.93
2022-10-11T16:34:52.051Z,9.48
2022-10-11T16:37:18.932Z,12.98
2022-10-11T16:39:45.911Z,12.80
2022-10-11T16:42:12.637Z,11.13
2022-10-11T16:44:39.476Z,11.32
2022-10-11T16:47:06.756Z,11.20
2022-10-11T16:49:33.649Z,11.13
2022-10-11T16:52:02.429Z,14.77
2022-10-11T16:54:30.331Z,9.68
2022-10-11T16:56:57.909Z,12.70
2022-10-11T16:59:24.750Z,14.82
2022-10-11T17:01:51.511Z,8.95
2022-10-11T17:04:18.348Z,13.50
2022-10-11T17:06:45.284Z,10.85
2022-10-11T17:09:12.016Z,11.23
2022-10-11T17:11:38.805Z,14.43
2022-10-11T17:14:06.093Z,13.00
2022-10-11T17:16:33.345Z,17.67
2022-10-11T17:19:00.316Z,14.38
2022-10-11T17:21:27.207Z,20.33
2022-10-11T17:23:54.102Z,18.67
2022-10-11T17:26:26.296Z,19.65
2022-10-11T17:28:58.401Z,18.00
2022-10-11T17:31:26.014Z,15.27
2022-10-11T17:33:54.344Z,14.18
2022-10-11T17:36:24.098Z,16.55
2022-10-11T17:38:51.743Z,16.80
2022-10-11T17:41:19.104Z,16.65
2022-10-11T17:43:46.742Z,16.10
2022-10-11T17:46:15.199Z,16.27
2022-10-11T17:48:42.357Z,19.25
2022-10-11T17:51:11.542Z,15.88
2022-10-11T17:53:38.785Z,19.52
2022-10-11T17:56:11.514Z,22.13
2022-10-11T17:58:38.626Z,15.52
2022-10-11T18:01:08.792Z,21.55
2022-10-11T18:03:36.227Z,20.10
2022-10-11T18:06:05.645Z,20.05
2022-10-11T18:08:39.799Z,15.80
2022-10-11T18:11:16.746Z,21.13
2022-10-11T18:13:46.469Z,26.45
2022-10-11T18:16:15.845Z,23.83
2022-10-11T18:18:43.309Z,21.15
2022-10-11T18:21:10.639Z,18.95
2022-10-11T18:23:41.168Z,18.83
2022-10-11T18:26:34.447Z,30.92
2022-10-11T18:29:01.356Z,85.45
2022-10-11T18:31:30.847Z,51.67
2022-10-11T18:33:58.046Z,19.58
2022-10-11T18:36:27.150Z,18.27
2022-10-11T18:38:56.112Z,19.13
2022-10-11T18:41:24.677Z,20.20
2022-10-11T18:43:53.820Z,16.70
2022-10-11T18:46:21.959Z,19.05
2022-10-11T18:48:53.555Z,18.35
2022-10-11T18:51:23.664Z,19.77
2022-10-11T18:53:51.067Z,14.05
2022-10-11T18:56:22.935Z,19.08
2022-10-11T18:58:50.905Z,28.80
2022-10-11T19:01:20.400Z,24.20
2022-10-11T19:03:49.168Z,28.80
2022-10-11T19:06:18.517Z,20.73
2022-10-11T19:08:49.941Z,21.15
2022-10-11T19:11:21.474Z,20.70
2022-10-11T19:13:54.952Z,23.52
2022-10-11T19:16:21.778Z,36.00
2022-10-11T19:18:51.980Z,20.98
2022-10-11T19:21:19.655Z,22.90
2022-10-11T19:23:47.988Z,19.88
2022-10-11T19:26:20.504Z,15.70
2022-10-11T19:28:48.443Z,21.17
2022-10-11T19:31:16.972Z,15.90
2022-10-11T19:33:45.280Z,22.58
2022-10-11T19:36:16.503Z,20.63
2022-10-11T19:38:45.953Z,22.98
2022-10-11T19:41:14.185Z,19.23
2022-10-11T19:43:41.085Z,19.90
2022-10-11T19:46:10.545Z,19.35
2022-10-11T19:48:39.353Z,22.40
2022-10-11T19:51:12.011Z,21.58
2022-10-11T19:53:39.222Z,19.23
2022-10-11T19:56:12.040Z,20.92
2022-10-11T19:58:39.688Z,16.55
2022-10-11T20:01:13.395Z,26.38
2022-10-11T20:03:40.096Z,19.48
2022-10-11T20:06:08.339Z,22.10
2022-10-11T20:08:36.281Z,19.33
2022-10-11T20:11:06.160Z,16.23
2022-10-11T20:13:35.069Z,17.80
2022-10-11T20:16:04.992Z,18.02
2022-10-11T20:18:31.996Z,19.95
2022-10-11T20:21:08.911Z,19.02
2022-10-11T20:23:35.827Z,17.08
2022-10-11T20:26:06.037Z,16.25
2022-10-11T20:28:34.638Z,17.58
2022-10-11T20:31:02.744Z,17.08
2022-10-11T20:33:31.834Z,22.45
2022-10-11T20:36:06.566Z,18.77
2022-10-11T20:38:34.754Z,19.73
2022-10-11T20:41:07.035Z,17.30
2022-10-11T20:43:33.970Z,20.95
2022-10-11T20:46:07.245Z,17.85
2022-10-11T20:48:35.108Z,16.85
2022-10-11T20:51:02.081Z,21.05
2022-10-11T20:53:28.933Z,19.35
2022-10-11T20:55:56.371Z,18.52
2022-10-11T20:58:24.084Z,20.95
2022-10-11T21:00:50.826Z,18.17
2022-10-11T21:03:17.982Z,18.92
2022-10-11T21:05:45.057Z,12.70
2022-10-11T21:08:12.269Z,17.73
2022-10-11T21:10:39.351Z,19.63
2022-10-11T21:13:06.189Z,15.68
2022-10-11T21:15:32.978Z,17.63
2022-10-11T21:17:59.712Z,18.15
2022-10-11T21:20:26.465Z,17.55
2022-10-11T21:22:53.347Z,15.32
2022-10-11T21:25:20.229Z,15.80
2022-10-11T21:27:46.917Z,20.77
2022-10-11T21:30:13.772Z,19.08
2022-10-11T21:32:40.449Z,13.40
2022-10-11T21:35:07.151Z,13.35
2022-10-11T21:37:34.079Z,16.02
2022-10-11T21:40:00.909Z,15.38
2022-10-11T21:42:29.688Z,15.20
2022-10-11T21:44:56.471Z,16.65
2022-10-11T21:47:23.209Z,18.10
2022-10-11T21:49:50.200Z,16.92
2022-10-11T21:52:17.123Z,15.15
2022-10-11T21:54:43.843Z,17.05
2022-10-11T21:57:10.493Z,17.88
2022-10-11T21:59:37.268Z,14.40
2022-10-11T22:02:04.061Z,18.58
2022-10-11T22:04:30.794Z,18.20
2022-10-11T22:06:57.617Z,16.65
2022-10-11T22:09:24.404Z,12.60
2022-10-11T22:11:51.123Z,11.57
2022-10-11T22:14:18.716Z,12.65
2022-10-11T22:16:45.415Z,17.75
2022-10-11T22:19:12.347Z,14.13
2022-10-11T22:21:44.013Z,23.38
2022-10-11T22:24:11.676Z,13.73
2022-10-11T22:26:38.547Z,14.95
2022-10-11T22:29:05.259Z,9.50
2022-10-11T22:31:31.996Z,14.68
2022-10-11T22:34:00.373Z,11.00
2022-10-11T22:36:28.348Z,15.45
2022-10-11T22:38:55.105Z,14.95
2022-10-11T22:41:22.627Z,13.82
2022-10-11T22:43:49.867Z,13.05
2022-10-11T22:46:16.843Z,16.08
2022-10-11T22:48:43.649Z,13.68
2022-10-11T22:51:10.392Z,14.45
2022-10-11T22:53:37.065Z,11.25
2022-10-11T22:56:03.886Z,9.82
2022-10-11T22:58:30.625Z,14.32
2022-10-11T23:00:57.298Z,11.18
2022-10-11T23:03:24.058Z,14.70
2022-10-11T23:05:57.865Z,11.15
2022-10-11T23:08:25.080Z,13.23
2022-10-11T23:10:52.232Z,15.23
2022-10-11T23:13:19.454Z,19.15
2022-10-11T23:15:46.120Z,11.95
2022-10-11T23:18:13.097Z,15.07
2022-10-11T23:20:39.956Z,11.10
2022-10-11T23:23:07.111Z,14.00
2022-10-11T23:25:33.837Z,13.82
2022-10-11T23:28:01.516Z,12.07
2022-10-11T23:30:29.572Z,13.15
2022-10-11T23:32:56.285Z,13.85
2022-10-11T23:35:23.399Z,10.25
2022-10-11T23:37:50.055Z,9.02
2022-10-11T23:40:16.832Z,13.10
2022-10-11T23:42:43.547Z,11.48
2022-10-11T23:45:10.552Z,11.65
2022-10-11T23:47:37.623Z,10.25
2022-10-11T23:50:05.001Z,11.38
2022-10-11T23:52:31.694Z,11.13
2022-10-11T23:54:58.384Z,18.80
2022-10-11T23:57:25.093Z,8.75
2022-10-11T23:59:51.732Z,10.65
